createdAt,value
2024-05-09T00:00:02.091Z,1018.02
2024-05-09T00:01:02.102Z,1018.02
2024-05-09T00:02:02.047Z,1018.02
2024-05-09T00:03:02.072Z,1018.02
2024-05-09T00:04:02.200Z,1018.02
2024-05-09T00:05:02.168Z,1018.02
2024-05-09T00:06:02.234Z,1018.03
2024-05-09T00:07:02.031Z,1018.03
2024-05-09T00:08:02.101Z,1018.03
2024-05-09T00:09:02.036Z,1018.03
2024-05-09T00:10:02.163Z,1018.03
2024-05-09T00:11:02.153Z,1018.03
2024-05-09T00:12:02.168Z,1018.02
2024-05-09T00:13:01.948Z,1018.02
2024-05-09T00:14:01.934Z,1018.03
2024-05-09T00:15:01.924Z,1018.04
2024-05-09T00:16:01.922Z,1018.05
2024-05-09T00:17:01.894Z,1018.05
2024-05-09T00:18:02.261Z,1018.05
2024-05-09T00:19:01.981Z,1018.05
2024-05-09T00:20:01.918Z,1018.06
2024-05-09T00:21:02.051Z,1018.06
2024-05-09T00:22:01.864Z,1018.05
2024-05-09T00:23:01.963Z,1018.05
2024-05-09T00:24:01.816Z,1018.05
2024-05-09T00:25:01.814Z,1018.07
2024-05-09T00:26:01.874Z,1018.06
2024-05-09T00:27:01.791Z,1018.06
2024-05-09T00:28:01.868Z,1018.06
2024-05-09T00:29:01.800Z,1018.05
2024-05-09T00:30:03.902Z,1018.05
2024-05-09T00:31:01.750Z,1018.04
2024-05-09T00:32:01.799Z,1018.04
2024-05-09T00:33:01.907Z,1018.04
2024-05-09T00:34:01.929Z,1018.05
2024-05-09T00:35:01.723Z,1018.05
2024-05-09T00:36:01.679Z,1018.05
2024-05-09T00:37:01.665Z,1018.05
2024-05-09T00:38:02.066Z,1018.03
2024-05-09T00:39:01.656Z,1018.02
2024-05-09T00:40:01.692Z,1018.03
2024-05-09T00:41:01.697Z,1018.02
2024-05-09T00:42:01.611Z,1018.01
2024-05-09T00:43:01.641Z,1017.99
2024-05-09T00:44:01.635Z,1017.98
2024-05-09T00:45:01.599Z,1017.98
2024-05-09T00:46:01.583Z,1017.98
2024-05-09T00:47:01.608Z,1017.99
2024-05-09T00:48:01.744Z,1017.99
2024-05-09T00:49:01.701Z,1017.99
2024-05-09T00:50:01.682Z,1017.98
2024-05-09T00:51:01.653Z,1017.99
2024-05-09T00:52:01.537Z,1017.99
2024-05-09T00:53:01.604Z,1017.99
2024-05-09T00:54:01.489Z,1017.99
2024-05-09T00:55:01.474Z,1018.00
2024-05-09T00:56:01.500Z,1018.01
2024-05-09T00:57:01.469Z,1018.00
2024-05-09T00:58:01.468Z,1017.99
2024-05-09T00:59:01.497Z,1017.99
2024-05-09T01:00:01.452Z,1017.99
2024-05-09T01:01:01.455Z,1017.98
2024-05-09T01:02:01.482Z,1017.98
2024-05-09T01:03:01.698Z,1017.97
2024-05-09T01:04:01.557Z,1017.96
2024-05-09T01:05:01.502Z,1017.96
2024-05-09T01:06:01.417Z,1017.95
2024-05-09T01:07:01.337Z,1017.94
2024-05-09T01:08:01.407Z,1017.93
2024-05-09T01:09:01.314Z,1017.93
2024-05-09T01:10:01.344Z,1017.93
2024-05-09T01:11:01.513Z,1017.93
2024-05-09T01:12:01.513Z,1017.93
2024-05-09T01:13:01.298Z,1017.95
2024-05-09T01:14:01.319Z,1017.95
2024-05-09T01:15:01.279Z,1017.95
2024-05-09T01:16:01.367Z,1017.96
2024-05-09T01:17:01.292Z,1017.95
2024-05-09T01:18:01.723Z,1017.94
2024-05-09T01:19:01.326Z,1017.94
2024-05-09T01:20:01.311Z,1017.93
2024-05-09T01:21:01.364Z,1017.92
2024-05-09T01:22:01.200Z,1017.91
2024-05-09T01:23:01.296Z,1017.91
2024-05-09T01:24:01.197Z,1017.92
2024-05-09T01:25:01.171Z,1017.93
2024-05-09T01:26:01.207Z,1017.93
2024-05-09T01:27:01.147Z,1017.94
2024-05-09T01:28:01.154Z,1017.94
2024-05-09T01:29:01.177Z,1017.93
2024-05-09T01:30:01.115Z,1017.93
2024-05-09T01:31:01.120Z,1017.94
2024-05-09T01:32:01.290Z,1017.94
2024-05-09T01:33:01.514Z,1017.95
2024-05-09T01:34:01.216Z,1017.95
2024-05-09T01:35:01.191Z,1017.95
2024-05-09T01:36:01.096Z,1017.95
2024-05-09T01:37:01.013Z,1017.94
2024-05-09T01:38:01.119Z,1017.94
2024-05-09T01:39:01.026Z,1017.95
2024-05-09T01:40:01.038Z,1017.97
2024-05-09T01:41:01.110Z,1017.97
2024-05-09T01:42:00.974Z,1017.96
2024-05-09T01:43:00.990Z,1017.97
2024-05-09T01:44:01.038Z,1017.98
2024-05-09T01:45:00.955Z,1017.98
2024-05-09T01:46:00.953Z,1017.98
2024-05-09T01:47:00.980Z,1017.99
2024-05-09T01:48:01.476Z,1017.99
2024-05-09T01:49:01.057Z,1017.99
2024-05-09T01:50:01.063Z,1017.99
2024-05-09T01:51:00.967Z,1017.99
2024-05-09T01:52:00.920Z,1017.99
2024-05-09T01:53:00.957Z,1017.98
2024-05-09T01:54:00.839Z,1017.97
2024-05-09T01:55:03.402Z,1017.97
2024-05-09T01:56:00.897Z,1017.96
2024-05-09T01:57:00.834Z,1017.96
2024-05-09T01:58:00.871Z,1017.95
2024-05-09T01:59:00.866Z,1017.95
2024-05-09T02:00:00.771Z,1017.94
2024-05-09T02:01:00.869Z,1017.92
2024-05-09T02:02:01.062Z,1017.92
2024-05-09T02:03:01.022Z,1017.92
2024-05-09T02:04:00.911Z,1017.91
2024-05-09T02:05:00.886Z,1017.90
2024-05-09T02:06:00.764Z,1017.89
2024-05-09T02:07:00.714Z,1017.90
2024-05-09T02:08:00.745Z,1017.90
2024-05-09T02:09:00.694Z,1017.91
2024-05-09T02:10:00.697Z,1017.91
2024-05-09T02:11:00.903Z,1017.92
2024-05-09T02:12:01.117Z,1017.94
2024-05-09T02:13:00.710Z,1017.95
2024-05-09T02:14:00.754Z,1017.96
2024-05-09T02:15:00.647Z,1017.96
2024-05-09T02:16:00.651Z,1017.97
2024-05-09T02:17:00.633Z,1017.98
2024-05-09T02:18:00.849Z,1017.97
2024-05-09T02:19:00.650Z,1017.95
2024-05-09T02:20:00.695Z,1017.95
2024-05-09T02:21:00.736Z,1017.93
2024-05-09T02:22:00.592Z,1017.92
2024-05-09T02:23:00.636Z,1017.89
2024-05-09T02:24:00.514Z,1017.90
2024-05-09T02:25:00.510Z,1017.89
2024-05-09T02:26:00.594Z,1017.88
2024-05-09T02:27:00.546Z,1017.88
2024-05-09T02:28:00.613Z,1017.88
2024-05-09T02:29:00.534Z,1017.88
2024-05-09T02:30:00.580Z,1017.89
2024-05-09T02:31:00.452Z,1017.89
2024-05-09T02:32:00.616Z,1017.89
2024-05-09T02:33:00.612Z,1017.90
2024-05-09T02:34:00.678Z,1017.91
2024-05-09T02:35:00.515Z,1017.92
2024-05-09T02:36:00.419Z,1017.91
2024-05-09T02:37:00.385Z,1017.91
2024-05-09T02:38:00.626Z,1017.92
2024-05-09T02:39:00.358Z,1017.91
2024-05-09T02:40:00.394Z,1017.90
2024-05-09T02:41:00.355Z,1017.90
2024-05-09T02:42:00.373Z,1017.90
2024-05-09T02:43:00.338Z,1017.90
2024-05-09T02:44:00.391Z,1017.90
2024-05-09T02:45:00.345Z,1017.90
2024-05-09T02:46:00.339Z,1017.91
2024-05-09T02:47:00.371Z,1017.92
2024-05-09T02:48:01.393Z,1017.92
2024-05-09T02:49:00.330Z,1017.92
2024-05-09T02:50:00.332Z,1017.91
2024-05-09T02:51:00.274Z,1017.92
2024-05-09T02:52:00.241Z,1017.92
2024-05-09T02:53:00.281Z,1017.91
2024-05-09T02:54:00.195Z,1017.90
2024-05-09T02:55:00.199Z,1017.89
2024-05-09T02:56:00.241Z,1017.90
2024-05-09T02:57:00.180Z,1017.89
2024-05-09T02:58:00.194Z,1017.89
2024-05-09T02:59:00.209Z,1017.88
2024-05-09T03:00:00.164Z,1017.89
2024-05-09T03:01:00.164Z,1017.91
2024-05-09T03:02:00.253Z,1017.91
2024-05-09T03:03:00.299Z,1017.92
2024-05-09T03:04:00.320Z,1017.93
2024-05-09T03:05:00.108Z,1017.94
2024-05-09T03:06:00.102Z,1017.94
2024-05-09T03:07:00.069Z,1017.95
2024-05-09T03:08:00.110Z,1017.95
2024-05-09T03:09:00.055Z,1017.96
2024-05-09T03:10:00.054Z,1017.96
2024-05-09T03:11:00.120Z,1017.96
2024-05-09T03:12:00.150Z,1017.95
2024-05-09T03:13:00.003Z,1017.95
2024-05-09T03:14:00.038Z,1017.95
2024-05-09T03:14:59.972Z,1017.95
2024-05-09T03:15:59.989Z,1017.94
2024-05-09T03:16:59.976Z,1017.93
2024-05-09T03:18:00.182Z,1017.93
2024-05-09T03:19:00.067Z,1017.93
2024-05-09T03:19:59.940Z,1017.94
2024-05-09T03:21:00.020Z,1017.95
2024-05-09T03:21:59.929Z,1017.94
2024-05-09T03:22:59.919Z,1017.94
2024-05-09T03:23:59.915Z,1017.94
2024-05-09T03:24:59.867Z,1017.94
2024-05-09T03:25:59.871Z,1017.95
2024-05-09T03:26:59.842Z,1017.95
2024-05-09T03:27:59.927Z,1017.97
2024-05-09T03:28:59.880Z,1017.97
2024-05-09T03:29:59.820Z,1017.98
2024-05-09T03:30:59.811Z,1017.98
2024-05-09T03:31:59.874Z,1017.98
2024-05-09T03:32:59.954Z,1017.98
2024-05-09T03:33:59.927Z,1017.97
2024-05-09T03:34:59.794Z,1017.98
2024-05-09T03:35:59.755Z,1017.98
2024-05-09T03:36:59.758Z,1017.97
2024-05-09T03:37:59.750Z,1017.94
2024-05-09T03:38:59.736Z,1017.93
2024-05-09T03:39:59.733Z,1017.92
2024-05-09T03:40:59.753Z,1017.91
2024-05-09T03:41:59.699Z,1017.90
2024-05-09T03:42:59.671Z,1017.90
2024-05-09T03:43:59.726Z,1017.89
2024-05-09T03:44:59.672Z,1017.89
2024-05-09T03:45:59.690Z,1017.89
2024-05-09T03:46:59.680Z,1017.89
2024-05-09T03:47:59.785Z,1017.89
2024-05-09T03:48:59.772Z,1017.89
2024-05-09T03:49:59.688Z,1017.90
2024-05-09T03:50:59.641Z,1017.90
2024-05-09T03:51:59.670Z,1017.91
2024-05-09T03:52:59.629Z,1017.91
2024-05-09T03:53:59.571Z,1017.91
2024-05-09T03:54:59.572Z,1017.92
2024-05-09T03:55:59.602Z,1017.92
2024-05-09T03:56:59.550Z,1017.93
2024-05-09T03:57:59.849Z,1017.93
2024-05-09T03:58:59.582Z,1017.94
2024-05-09T03:59:59.503Z,1017.94
2024-05-09T04:00:59.513Z,1017.95
2024-05-09T04:01:59.595Z,1017.96
2024-05-09T04:02:59.707Z,1017.98
2024-05-09T04:03:59.556Z,1017.98
2024-05-09T04:04:59.493Z,1017.99
2024-05-09T04:05:59.425Z,1017.99
2024-05-09T04:06:59.434Z,1017.99
2024-05-09T04:07:59.482Z,1017.99
2024-05-09T04:08:59.404Z,1017.99
2024-05-09T04:09:59.402Z,1017.98
2024-05-09T04:10:59.511Z,1017.98
2024-05-09T04:11:59.563Z,1017.96
2024-05-09T04:12:59.380Z,1017.95
2024-05-09T04:13:59.408Z,1017.95
2024-05-09T04:14:59.352Z,1017.96
2024-05-09T04:15:59.352Z,1017.96
2024-05-09T04:16:59.395Z,1017.97
2024-05-09T04:17:59.800Z,1017.99
2024-05-09T04:18:59.350Z,1017.99
2024-05-09T04:19:59.334Z,1018.01
2024-05-09T04:20:59.378Z,1018.01
2024-05-09T04:21:59.318Z,1018.02
2024-05-09T04:22:59.280Z,1018.03
2024-05-09T04:23:59.264Z,1018.03
2024-05-09T04:24:59.248Z,1018.04
2024-05-09T04:25:59.275Z,1018.04
2024-05-09T04:26:59.235Z,1018.04
2024-05-09T04:27:59.229Z,1018.04
2024-05-09T04:28:59.261Z,1018.04
2024-05-09T04:29:59.187Z,1018.03
2024-05-09T04:30:59.175Z,1018.03
2024-05-09T04:31:59.242Z,1018.04
2024-05-09T04:32:59.336Z,1018.04
2024-05-09T04:33:59.283Z,1018.04
2024-05-09T04:34:59.208Z,1018.04
2024-05-09T04:35:59.106Z,1018.03
2024-05-09T04:36:59.095Z,1018.03
2024-05-09T04:37:59.153Z,1018.03
2024-05-09T04:38:59.083Z,1018.04
2024-05-09T04:39:59.087Z,1018.05
2024-05-09T04:40:59.144Z,1018.06
2024-05-09T04:41:59.055Z,1018.06
2024-05-09T04:42:59.044Z,1018.07
2024-05-09T04:43:59.087Z,1018.08
2024-05-09T04:44:59.034Z,1018.09
2024-05-09T04:45:59.048Z,1018.11
2024-05-09T04:46:59.081Z,1018.12
2024-05-09T04:47:59.313Z,1018.13
2024-05-09T04:48:59.080Z,1018.14
2024-05-09T04:49:58.992Z,1018.14
2024-05-09T04:50:59.003Z,1018.15
2024-05-09T04:51:58.971Z,1018.15
2024-05-09T04:52:59.012Z,1018.15
2024-05-09T04:53:58.929Z,1018.15
2024-05-09T04:54:59.106Z,1018.16
2024-05-09T04:55:58.938Z,1018.14
2024-05-09T04:56:58.903Z,1018.15
2024-05-09T04:57:58.922Z,1018.15
2024-05-09T04:58:58.902Z,1018.15
2024-05-09T04:59:58.856Z,1018.15
2024-05-09T05:00:58.862Z,1018.15
2024-05-09T05:01:59.003Z,1018.15
2024-05-09T05:02:58.941Z,1018.16
2024-05-09T05:03:59.259Z,1018.16
2024-05-09T05:04:58.938Z,1018.16
2024-05-09T05:05:58.914Z,1018.16
2024-05-09T05:07:02.139Z,1018.16
2024-05-09T05:07:58.940Z,1018.16
2024-05-09T05:08:58.780Z,1018.17
2024-05-09T05:09:58.782Z,1018.18
2024-05-09T05:10:58.869Z,1018.18
2024-05-09T05:11:58.820Z,1018.19
2024-05-09T05:12:58.730Z,1018.19
2024-05-09T05:13:58.816Z,1018.20
2024-05-09T05:14:58.699Z,1018.20
2024-05-09T05:15:58.899Z,1018.20
2024-05-09T05:16:58.751Z,1018.21
2024-05-09T05:17:58.918Z,1018.21
2024-05-09T05:18:58.736Z,1018.21
2024-05-09T05:19:58.759Z,1018.21
2024-05-09T05:20:58.853Z,1018.21
2024-05-09T05:21:58.668Z,1018.21
2024-05-09T05:22:58.632Z,1018.21
2024-05-09T05:23:58.591Z,1018.22
2024-05-09T05:24:58.580Z,1018.23
2024-05-09T05:25:58.673Z,1018.25
2024-05-09T05:26:58.563Z,1018.25
2024-05-09T05:27:58.596Z,1018.25
2024-05-09T05:28:58.703Z,1018.25
2024-05-09T05:29:58.557Z,1018.25
2024-05-09T05:30:58.515Z,1018.24
2024-05-09T05:31:58.631Z,1018.23
2024-05-09T05:32:58.656Z,1018.23
2024-05-09T05:33:58.590Z,1018.23
2024-05-09T05:34:58.542Z,1018.24
2024-05-09T05:35:58.502Z,1018.25
2024-05-09T05:36:58.456Z,1018.25
2024-05-09T05:37:58.541Z,1018.26
2024-05-09T05:38:58.489Z,1018.27
2024-05-09T05:39:58.456Z,1018.28
2024-05-09T05:40:58.544Z,1018.29
2024-05-09T05:41:58.435Z,1018.30
2024-05-09T05:42:58.417Z,1018.30
2024-05-09T05:43:58.464Z,1018.29
2024-05-09T05:44:58.368Z,1018.29
2024-05-09T05:45:58.395Z,1018.29
2024-05-09T05:46:58.460Z,1018.29
2024-05-09T05:47:58.556Z,1018.29
2024-05-09T05:48:58.399Z,1018.30
2024-05-09T05:49:58.362Z,1018.31
2024-05-09T05:51:00.406Z,1018.31
2024-05-09T05:51:58.350Z,1018.32
2024-05-09T05:52:58.318Z,1018.32
2024-05-09T05:53:58.300Z,1018.33
2024-05-09T05:54:58.279Z,1018.33
2024-05-09T05:55:58.371Z,1018.34
2024-05-09T05:56:58.266Z,1018.35
2024-05-09T05:57:58.267Z,1018.34
2024-05-09T05:58:58.260Z,1018.34
2024-05-09T05:59:58.220Z,1018.33
2024-05-09T06:00:58.280Z,1018.33
2024-05-09T06:01:58.296Z,1018.33
2024-05-09T06:02:58.279Z,1018.34
2024-05-09T06:03:58.453Z,1018.34
2024-05-09T06:04:58.251Z,1018.34
2024-05-09T06:05:58.376Z,1018.35
2024-05-09T06:06:58.148Z,1018.36
2024-05-09T06:07:58.257Z,1018.37
2024-05-09T06:08:58.170Z,1018.38
2024-05-09T06:09:58.129Z,1018.41
2024-05-09T06:10:58.217Z,1018.42
2024-05-09T06:11:58.184Z,1018.45
2024-05-09T06:12:58.067Z,1018.46
2024-05-09T06:13:58.135Z,1018.47
2024-05-09T06:14:58.076Z,1018.48
2024-05-09T06:15:58.072Z,1018.50
2024-05-09T06:16:58.413Z,1018.50
2024-05-09T06:17:58.339Z,1018.49
2024-05-09T06:18:58.156Z,1018.49
2024-05-09T06:19:58.079Z,1018.49
2024-05-09T06:20:58.077Z,1018.49
2024-05-09T06:21:58.014Z,1018.49
2024-05-09T06:22:58.015Z,1018.49
2024-05-09T06:23:57.953Z,1018.50
2024-05-09T06:24:57.967Z,1018.51
2024-05-09T06:25:57.987Z,1018.50
2024-05-09T06:26:57.925Z,1018.51
2024-05-09T06:27:57.930Z,1018.51
2024-05-09T06:28:57.986Z,1018.50
2024-05-09T06:29:57.922Z,1018.50
2024-05-09T06:30:57.910Z,1018.49
2024-05-09T06:32:00.247Z,1018.48
2024-05-09T06:32:58.025Z,1018.47
2024-05-09T06:33:58.047Z,1018.45
2024-05-09T06:34:57.989Z,1018.44
2024-05-09T06:35:57.826Z,1018.44
2024-05-09T06:36:57.816Z,1018.44
2024-05-09T06:37:57.861Z,1018.45
2024-05-09T06:38:57.814Z,1018.46
2024-05-09T06:39:57.854Z,1018.46
2024-05-09T06:40:57.839Z,1018.47
2024-05-09T06:41:57.762Z,1018.48
2024-05-09T06:42:57.745Z,1018.47
2024-05-09T06:43:57.772Z,1018.47
2024-05-09T06:44:57.748Z,1018.47
2024-05-09T06:45:57.738Z,1018.46
2024-05-09T06:46:59.962Z,1018.46
2024-05-09T06:47:57.901Z,1018.47
2024-05-09T06:48:58.033Z,1018.45
2024-05-09T06:49:57.697Z,1018.47
2024-05-09T06:50:57.692Z,1018.45
2024-05-09T06:51:57.701Z,1018.46
2024-05-09T06:52:57.702Z,1018.45
2024-05-09T06:53:57.630Z,1018.47
2024-05-09T06:54:57.635Z,1018.48
2024-05-09T06:55:57.673Z,1018.50
2024-05-09T06:56:57.618Z,1018.51
2024-05-09T06:57:57.609Z,1018.51
2024-05-09T06:58:57.605Z,1018.52
2024-05-09T06:59:57.611Z,1018.53
2024-05-09T07:00:57.614Z,1018.53
2024-05-09T07:01:57.572Z,1018.53
2024-05-09T07:02:58.977Z,1018.52
2024-05-09T07:03:57.655Z,1018.52
2024-05-09T07:04:57.679Z,1018.51
2024-05-09T07:05:57.535Z,1018.50
2024-05-09T07:06:57.489Z,1018.50
2024-05-09T07:07:57.512Z,1018.50
2024-05-09T07:08:57.489Z,1018.50
2024-05-09T07:09:57.504Z,1018.49
2024-05-09T07:10:57.559Z,1018.48
2024-05-09T07:11:57.546Z,1018.48
2024-05-09T07:12:57.421Z,1018.47
2024-05-09T07:13:57.488Z,1018.47
2024-05-09T07:14:57.424Z,1018.46
2024-05-09T07:15:57.641Z,1018.44
2024-05-09T07:16:57.468Z,1018.43
2024-05-09T07:17:57.579Z,1018.42
2024-05-09T07:18:57.546Z,1018.41
2024-05-09T07:19:57.376Z,1018.39
2024-05-09T07:20:57.359Z,1018.38
2024-05-09T07:21:57.386Z,1018.37
2024-05-09T07:22:57.341Z,1018.37
2024-05-09T07:23:57.343Z,1018.37
2024-05-09T07:24:57.310Z,1018.38
2024-05-09T07:25:57.375Z,1018.38
2024-05-09T07:26:57.296Z,1018.39
2024-05-09T07:27:57.329Z,1018.39
2024-05-09T07:28:57.374Z,1018.39
2024-05-09T07:29:57.251Z,1018.39
2024-05-09T07:30:57.254Z,1018.39
2024-05-09T07:31:57.238Z,1018.40
2024-05-09T07:32:57.460Z,1018.40
2024-05-09T07:33:57.313Z,1018.40
2024-05-09T07:34:57.228Z,1018.41
2024-05-09T07:35:57.204Z,1018.41
2024-05-09T07:36:57.181Z,1018.41
2024-05-09T07:37:57.242Z,1018.42
2024-05-09T07:38:57.173Z,1018.43
2024-05-09T07:39:57.176Z,1018.43
2024-05-09T07:40:57.205Z,1018.44
2024-05-09T07:41:57.130Z,1018.44
2024-05-09T07:42:57.146Z,1018.45
2024-05-09T07:43:57.120Z,1018.45
2024-05-09T07:45:06.382Z,1018.44
2024-05-09T07:46:00.885Z,1018.44
2024-05-09T07:49:44.256Z,1018.43
2024-05-09T07:53:14.169Z,1018.43
2024-05-09T07:53:46.080Z,1018.39
2024-05-09T07:53:57.165Z,1018.36
2024-05-09T07:54:52.942Z,1018.33
2024-05-09T07:55:53.011Z,1018.32
2024-05-09T07:56:53.077Z,1018.30
2024-05-09T07:57:52.750Z,1018.29
2024-05-09T07:58:52.827Z,1018.29
2024-05-09T07:59:52.607Z,1018.29
2024-05-09T08:00:52.722Z,1018.29
2024-05-09T08:01:52.754Z,1018.29
2024-05-09T08:02:52.754Z,1018.29
2024-05-09T08:03:52.834Z,1018.28
2024-05-09T08:04:52.636Z,1018.28
2024-05-09T08:05:52.702Z,1018.28
2024-05-09T08:06:52.603Z,1018.29
2024-05-09T08:07:52.567Z,1018.28
2024-05-09T08:08:52.639Z,1018.26
2024-05-09T08:09:52.704Z,1018.25
2024-05-09T08:10:52.670Z,1018.25
2024-05-09T08:11:52.700Z,1018.24
2024-05-09T08:12:52.625Z,1018.26
2024-05-09T08:13:52.523Z,1018.24
2024-05-09T08:14:52.562Z,1018.25
2024-05-09T08:15:52.876Z,1018.23
2024-05-09T08:16:52.498Z,1018.22
2024-05-09T08:17:52.575Z,1018.22
2024-05-09T08:18:52.690Z,1018.20
2024-05-09T08:19:52.532Z,1018.18
2024-05-09T08:20:52.422Z,1018.17
2024-05-09T08:21:52.434Z,1018.15
2024-05-09T08:22:52.387Z,1018.15
2024-05-09T08:23:52.363Z,1018.15
2024-05-09T08:24:52.465Z,1018.14
2024-05-09T08:25:52.335Z,1018.14
2024-05-09T08:26:52.369Z,1018.12
2024-05-09T08:27:52.435Z,1018.10
2024-05-09T08:28:52.310Z,1018.10
2024-05-09T08:29:52.430Z,1018.09
2024-05-09T08:30:52.436Z,1018.07
2024-05-09T08:31:52.338Z,1018.07
2024-05-09T08:32:52.330Z,1018.06
2024-05-09T08:33:52.519Z,1018.05
2024-05-09T08:34:52.364Z,1018.05
2024-05-09T08:35:52.227Z,1018.04
2024-05-09T08:36:52.250Z,1018.04
2024-05-09T08:37:52.257Z,1018.04
2024-05-09T08:38:52.210Z,1018.03
2024-05-09T08:39:52.301Z,1018.00
2024-05-09T08:40:52.275Z,1017.99
2024-05-09T08:41:52.176Z,1017.98
2024-05-09T08:42:52.347Z,1017.98
2024-05-09T08:43:52.137Z,1017.97
2024-05-09T08:44:52.167Z,1017.96
2024-05-09T08:45:52.222Z,1017.95
2024-05-09T08:46:52.138Z,1017.94
2024-05-09T08:47:52.160Z,1017.94
2024-05-09T08:48:52.221Z,1017.93
2024-05-09T08:49:52.156Z,1017.91
2024-05-09T08:50:52.207Z,1017.92
2024-05-09T08:51:52.093Z,1017.90
2024-05-09T08:52:52.060Z,1017.89
2024-05-09T08:53:52.033Z,1017.88
2024-05-09T08:54:52.075Z,1017.89
2024-05-09T08:55:52.056Z,1017.89
2024-05-09T08:56:52.016Z,1017.89
2024-05-09T08:57:52.181Z,1017.90
2024-05-09T08:58:51.998Z,1017.90
2024-05-09T08:59:51.990Z,1017.90
2024-05-09T09:00:52.123Z,1017.89
2024-05-09T09:01:52.058Z,1017.88
2024-05-09T09:02:51.986Z,1017.86
2024-05-09T09:03:52.072Z,1017.84
2024-05-09T09:04:52.052Z,1017.84
2024-05-09T09:05:52.051Z,1017.83
2024-05-09T09:06:53.350Z,1017.83
2024-05-09T09:07:51.909Z,1017.81
2024-05-09T09:08:51.869Z,1017.79
2024-05-09T09:09:51.983Z,1017.78
2024-05-09T09:10:51.871Z,1017.76
2024-05-09T09:11:51.888Z,1017.74
2024-05-09T09:12:51.847Z,1017.73
2024-05-09T09:13:51.804Z,1017.72
2024-05-09T09:14:51.793Z,1017.70
2024-05-09T09:15:51.976Z,1017.69
2024-05-09T09:16:51.798Z,1017.67
2024-05-09T09:17:51.891Z,1017.65
2024-05-09T09:18:51.997Z,1017.64
2024-05-09T09:19:51.806Z,1017.66
2024-05-09T09:20:51.794Z,1017.63
2024-05-09T09:21:51.831Z,1017.64
2024-05-09T09:22:51.714Z,1017.62
2024-05-09T09:23:51.713Z,1017.61
2024-05-09T09:24:51.850Z,1017.59
2024-05-09T09:25:51.688Z,1017.58
2024-05-09T09:26:51.695Z,1017.57
2024-05-09T09:27:51.767Z,1017.56
2024-05-09T09:28:51.671Z,1017.55
2024-05-09T09:29:51.636Z,1017.55
2024-05-09T09:30:51.728Z,1017.54
2024-05-09T09:31:51.603Z,1017.54
2024-05-09T09:32:51.721Z,1017.54
2024-05-09T09:33:51.720Z,1017.52
2024-05-09T09:34:51.676Z,1017.53
2024-05-09T09:35:51.566Z,1017.54
2024-05-09T09:36:51.603Z,1017.54
2024-05-09T09:37:51.537Z,1017.53
2024-05-09T09:38:51.548Z,1017.52
2024-05-09T09:39:51.572Z,1017.53
2024-05-09T09:40:51.665Z,1017.51
2024-05-09T09:41:51.517Z,1017.49
2024-05-09T09:42:51.568Z,1017.49
2024-05-09T09:43:51.510Z,1017.50
2024-05-09T09:45:01.820Z,1017.49
2024-05-09T09:45:51.964Z,1017.46
2024-05-09T09:46:51.537Z,1017.45
2024-05-09T09:47:51.544Z,1017.42
2024-05-09T09:48:51.554Z,1017.39
2024-05-09T09:49:51.444Z,1017.39
2024-05-09T09:50:51.443Z,1017.42
2024-05-09T09:51:51.462Z,1017.37
2024-05-09T09:52:51.384Z,1017.39
2024-05-09T09:53:51.374Z,1017.38
2024-05-09T09:54:51.403Z,1017.39
2024-05-09T09:55:51.346Z,1017.38
2024-05-09T09:56:51.346Z,1017.38
2024-05-09T09:57:51.402Z,1017.36
2024-05-09T09:58:51.315Z,1017.37
2024-05-09T09:59:51.317Z,1017.37
2024-05-09T10:00:51.455Z,1017.33
2024-05-09T10:01:51.418Z,1017.33
2024-05-09T10:02:51.403Z,1017.32
2024-05-09T10:03:51.454Z,1017.30
2024-05-09T10:04:51.443Z,1017.29
2024-05-09T10:05:51.315Z,1017.27
2024-05-09T10:06:51.297Z,1017.26
2024-05-09T10:07:51.225Z,1017.23
2024-05-09T10:08:51.215Z,1017.21
2024-05-09T10:09:51.262Z,1017.21
2024-05-09T10:10:51.323Z,1017.19
2024-05-09T10:11:52.427Z,1017.19
2024-05-09T10:12:51.223Z,1017.19
2024-05-09T10:13:51.164Z,1017.16
2024-05-09T10:14:51.181Z,1017.16
2024-05-09T10:15:51.346Z,1017.17
2024-05-09T10:16:51.152Z,1017.17
2024-05-09T10:17:51.208Z,1017.17
2024-05-09T10:18:51.391Z,1017.14
2024-05-09T10:19:51.192Z,1017.13
2024-05-09T10:20:51.110Z,1017.11
2024-05-09T10:21:51.159Z,1017.11
2024-05-09T10:22:51.064Z,1017.14
2024-05-09T10:23:51.053Z,1017.12
2024-05-09T10:24:51.158Z,1017.10
2024-05-09T10:25:51.031Z,1017.07
2024-05-09T10:26:51.055Z,1017.05
2024-05-09T10:27:51.064Z,1017.04
2024-05-09T10:28:50.997Z,1017.03
2024-05-09T10:29:51.005Z,1017.02
2024-05-09T10:30:51.004Z,1017.00
2024-05-09T10:31:51.067Z,1016.97
2024-05-09T10:32:51.073Z,1016.95
2024-05-09T10:33:52.223Z,1016.95
2024-05-09T10:34:50.965Z,1016.93
2024-05-09T10:35:50.922Z,1016.91
2024-05-09T10:36:51.016Z,1016.91
2024-05-09T10:37:50.933Z,1016.91
2024-05-09T10:38:50.925Z,1016.92
2024-05-09T10:39:50.900Z,1016.87
2024-05-09T10:40:50.951Z,1016.87
2024-05-09T10:41:50.875Z,1016.82
2024-05-09T10:42:50.941Z,1016.81
2024-05-09T10:43:50.885Z,1016.79
2024-05-09T10:44:50.850Z,1016.79
2024-05-09T10:45:50.840Z,1016.76
2024-05-09T10:46:50.898Z,1016.78
2024-05-09T10:47:50.986Z,1016.77
2024-05-09T10:48:50.964Z,1016.77
2024-05-09T10:49:51.056Z,1016.74
2024-05-09T10:50:50.785Z,1016.74
2024-05-09T10:51:50.896Z,1016.73
2024-05-09T10:52:50.738Z,1016.72
2024-05-09T10:53:50.737Z,1016.70
2024-05-09T10:54:50.766Z,1016.68
2024-05-09T10:55:50.732Z,1016.68
2024-05-09T10:56:50.720Z,1016.64
2024-05-09T10:57:50.827Z,1016.67
2024-05-09T10:58:50.689Z,1016.66
2024-05-09T10:59:50.665Z,1016.64
2024-05-09T11:00:50.724Z,1016.63
2024-05-09T11:01:50.761Z,1016.62
2024-05-09T11:02:50.720Z,1016.60
2024-05-09T11:03:50.928Z,1016.62
2024-05-09T11:04:50.772Z,1016.57
2024-05-09T11:05:50.690Z,1016.61
2024-05-09T11:06:50.656Z,1016.59
2024-05-09T11:07:50.587Z,1016.58
2024-05-09T11:08:50.595Z,1016.56
2024-05-09T11:09:50.645Z,1016.55
2024-05-09T11:10:50.687Z,1016.53
2024-05-09T11:11:50.565Z,1016.51
2024-05-09T11:12:59.607Z,1016.48
2024-05-09T11:13:52.077Z,1016.47
2024-05-09T11:14:51.220Z,1016.46
2024-05-09T11:15:50.516Z,1016.49
2024-05-09T11:16:50.481Z,1016.47
2024-05-09T11:17:50.652Z,1016.47
2024-05-09T11:18:50.540Z,1016.46
2024-05-09T11:19:50.500Z,1016.45
2024-05-09T11:20:50.563Z,1016.42
2024-05-09T11:21:50.490Z,1016.42
2024-05-09T11:22:50.404Z,1016.41
2024-05-09T11:23:50.405Z,1016.39
2024-05-09T11:24:50.415Z,1016.40
2024-05-09T11:25:50.373Z,1016.39
2024-05-09T11:26:50.386Z,1016.39
2024-05-09T11:27:50.463Z,1016.39
2024-05-09T11:28:50.655Z,1016.38
2024-05-09T11:29:50.336Z,1016.35
2024-05-09T11:30:50.390Z,1016.35
2024-05-09T11:31:50.338Z,1016.36
2024-05-09T11:32:50.431Z,1016.35
2024-05-09T11:33:50.476Z,1016.32
2024-05-09T11:34:50.273Z,1016.34
2024-05-09T11:35:50.274Z,1016.37
2024-05-09T11:36:50.314Z,1016.34
2024-05-09T11:37:50.258Z,1016.33
2024-05-09T11:38:50.277Z,1016.31
2024-05-09T11:39:50.242Z,1016.30
2024-05-09T11:40:50.260Z,1016.29
2024-05-09T11:41:50.199Z,1016.34
2024-05-09T11:42:53.003Z,1016.39
2024-05-09T11:43:50.200Z,1016.35
2024-05-09T11:44:50.204Z,1016.33
2024-05-09T11:45:50.223Z,1016.32
2024-05-09T11:46:50.162Z,1016.30
2024-05-09T11:47:50.240Z,1016.30
2024-05-09T11:48:50.339Z,1016.27
2024-05-09T11:49:50.189Z,1016.25
2024-05-09T11:50:50.114Z,1016.26
2024-05-09T11:51:50.125Z,1016.22
2024-05-09T11:52:50.074Z,1016.25
2024-05-09T11:53:50.077Z,1016.22
2024-05-09T11:54:50.089Z,1016.18
2024-05-09T11:55:50.118Z,1016.15
2024-05-09T11:56:50.094Z,1016.13
2024-05-09T11:57:50.052Z,1016.11
2024-05-09T11:58:50.028Z,1016.09
2024-05-09T11:59:50.022Z,1016.07
2024-05-09T12:00:50.294Z,1016.07
2024-05-09T12:01:50.117Z,1016.06
2024-05-09T12:02:50.040Z,1016.05
2024-05-09T12:03:50.151Z,1016.04
2024-05-09T12:04:50.068Z,1016.03
2024-05-09T12:05:50.086Z,1016.00
2024-05-09T12:06:50.049Z,1016.00
2024-05-09T12:07:49.941Z,1015.99
2024-05-09T12:08:49.975Z,1015.97